sensor_id;sensor_type;location;lat;lon;timestamp;temperature;humidity
17815;DHT22;9031;50.974;11.330;2023-08-01T00:03:54;16.70;99.90
17815;DHT22;9031;50.974;11.330;2023-08-01T00:06:19;16.70;99.90
17815;DHT22;9031;50.974;11.330;2023-08-01T00:08:45;16.70;99.90
17815;DHT22;9031;50.974;11.330;2023-08-01T00:11:10;16.60;99.90
17815;DHT22;9031;50.974;11.330;2023-08-01T00:13:37;16.60;99.90
17815;DHT22;9031;50.974;11.330;2023-08-01T00:16:02;16.70;99.90
17815;DHT22;9031;50.974;11.330;2023-08-01T00:18:28;16.70;99.90
17815;DHT22;9031;50.974;11.330;2023-08-01T00:20:53;16.70;99.90
17815;DHT22;9031;50.974;11.330;2023-08-01T00:23:19;16.70;99.90
17815;DHT22;9031;50.974;11.330;2023-08-01T00:25:45;16.80;99.90
17815;DHT22;9031;50.974;11.330;2023-08-01T00:28:17;16.80;99.90
17815;DHT22;9031;50.974;11.330;2023-08-01T00:30:42;16.80;99.90
17815;DHT22;9031;50.974;11.330;2023-08-01T00:33:08;16.90;99.90
17815;DHT22;9031;50.974;11.330;2023-08-01T00:35:33;16.90;99.90
17815;DHT22;9031;50.974;11.330;2023-08-01T00:37:59;16.90;99.90
17815;DHT22;9031;50.974;11.330;2023-08-01T00:40:32;16.90;99.90
17815;DHT22;9031;50.974;11.330;2023-08-01T00:42:59;16.90;99.90
17815;DHT22;9031;50.974;11.330;2023-08-01T00:45:28;17.00;99.90
17815;DHT22;9031;50.974;11.330;2023-08-01T00:47:54;17.00;99.90
17815;DHT22;9031;50.974;11.330;2023-08-01T00:50:20;17.00;99.90
17815;DHT22;9031;50.974;11.330;2023-08-01T00:52:47;17.10;99.90
17815;DHT22;9031;50.974;11.330;2023-08-01T00:55:14;17.10;99.90
17815;DHT22;9031;50.974;11.330;2023-08-01T00:57:41;17.10;99.90
17815;DHT22;9031;50.974;11.330;2023-08-01T01:00:07;17.20;99.90
17815;DHT22;9031;50.974;11.330;2023-08-01T01:02:33;17.20;99.90
17815;DHT22;9031;50.974;11.330;2023-08-01T01:04:59;17.20;99.90
17815;DHT22;9031;50.974;11.330;2023-08-01T01:07:25;17.20;99.90
17815;DHT22;9031;50.974;11.330;2023-08-01T01:09:51;17.20;99.90
17815;DHT22;9031;50.974;11.330;2023-08-01T01:12:17;17.30;99.90
17815;DHT22;9031;50.974;11.330;2023-08-01T01:14:42;17.20;99.90
17815;DHT22;9031;50.974;11.330;2023-08-01T01:17:08;17.20;99.90
17815;DHT22;9031;50.974;11.330;2023-08-01T01:19:33;17.20;99.90
17815;DHT22;9031;50.974;11.330;2023-08-01T01:21:59;17.20;99.90
17815;DHT22;9031;50.974;11.330;2023-08-01T01:24:26;17.30;99.90
17815;DHT22;9031;50.974;11.330;2023-08-01T01:26:54;17.30;99.90
17815;DHT22;9031;50.974;11.330;2023-08-01T01:29:21;17.30;99.90
17815;DHT22;9031;50.974;11.330;2023-08-01T01:31:47;17.20;99.90
17815;DHT22;9031;50.974;11.330;2023-08-01T01:34:13;17.20;99.90
17815;DHT22;9031;50.974;11.330;2023-08-01T01:36:39;17.30;99.90
17815;DHT22;9031;50.974;11.330;2023-08-01T01:39:04;17.20;99.90
17815;DHT22;9031;50.974;11.330;2023-08-01T01:41:30;17.30;99.90
17815;DHT22;9031;50.974;11.330;2023-08-01T01:43:56;17.30;99.90
17815;DHT22;9031;50.974;11.330;2023-08-01T01:46:21;17.30;99.90
17815;DHT22;9031;50.974;11.330;2023-08-01T01:48:47;17.40;99.90
17815;DHT22;9031;50.974;11.330;2023-08-01T01:51:13;17.40;99.90
17815;DHT22;9031;50.974;11.330;2023-08-01T01:53:38;17.40;99.90
17815;DHT22;9031;50.974;11.330;2023-08-01T01:56:04;17.40;99.90
17815;DHT22;9031;50.974;11.330;2023-08-01T01:58:29;17.30;99.90
17815;DHT22;9031;50.974;11.330;2023-08-01T02:00:55;17.30;99.90
17815;DHT22;9031;50.974;11.330;2023-08-01T02:03:20;17.40;99.90
17815;DHT22;9031;50.974;11.330;2023-08-01T02:05:46;17.30;99.90
17815;DHT22;9031;50.974;11.330;2023-08-01T02:08:11;17.40;99.90
17815;DHT22;9031;50.974;11.330;2023-08-01T02:10:37;17.40;99.90
17815;DHT22;9031;50.974;11.330;2023-08-01T02:13:02;17.40;99.90
17815;DHT22;9031;50.974;11.330;2023-08-01T02:15:28;17.30;99.90
17815;DHT22;9031;50.974;11.330;2023-08-01T02:17:53;17.40;99.90
17815;DHT22;9031;50.974;11.330;2023-08-01T02:20:19;17.30;99.90
17815;DHT22;9031;50.974;11.330;2023-08-01T02:22:44;17.30;99.90
17815;DHT22;9031;50.974;11.330;2023-08-01T02:25:10;17.30;99.90
17815;DHT22;9031;50.974;11.330;2023-08-01T02:27:36;17.30;99.90
17815;DHT22;9031;50.974;11.330;2023-08-01T02:30:02;17.30;99.90
17815;DHT22;9031;50.974;11.330;2023-08-01T02:32:28;17.30;99.90
17815;DHT22;9031;50.974;11.330;2023-08-01T02:34:53;17.30;99.90
17815;DHT22;9031;50.974;11.330;2023-08-01T02:37:18;17.30;99.90
17815;DHT22;9031;50.974;11.330;2023-08-01T02:39:44;17.20;99.90
17815;DHT22;9031;50.974;11.330;2023-08-01T02:42:10;17.20;99.90
17815;DHT22;9031;50.974;11.330;2023-08-01T02:44:35;17.10;99.90
17815;DHT22;9031;50.974;11.330;2023-08-01T02:47:01;17.10;99.90
17815;DHT22;9031;50.974;11.330;2023-08-01T02:49:26;17.10;99.90
17815;DHT22;9031;50.974;11.330;2023-08-01T02:51:52;17.10;99.90
17815;DHT22;9031;50.974;11.330;2023-08-01T02:54:17;17.10;99.90
17815;DHT22;9031;50.974;11.330;2023-08-01T02:56:43;17.00;99.90
17815;DHT22;9031;50.974;11.330;2023-08-01T02:59:08;17.10;99.90
17815;DHT22;9031;50.974;11.330;2023-08-01T03:01:38;17.00;99.90
17815;DHT22;9031;50.974;11.330;2023-08-01T03:04:04;17.00;99.90
17815;DHT22;9031;50.974;11.330;2023-08-01T03:06:34;17.00;99.90
17815;DHT22;9031;50.974;11.330;2023-08-01T03:09:00;17.00;99.90
17815;DHT22;9031;50.974;11.330;2023-08-01T03:11:26;17.00;99.90
17815;DHT22;9031;50.974;11.330;2023-08-01T03:13:51;17.10;99.90
17815;DHT22;9031;50.974;11.330;2023-08-01T03:16:17;17.00;99.90
17815;DHT22;9031;50.974;11.330;2023-08-01T03:18:43;16.90;99.90
17815;DHT22;9031;50.974;11.330;2023-08-01T03:21:08;17.00;99.90
17815;DHT22;9031;50.974;11.330;2023-08-01T03:23:34;16.90;99.90
17815;DHT22;9031;50.974;11.330;2023-08-01T03:26:00;17.00;99.90
17815;DHT22;9031;50.974;11.330;2023-08-01T03:28:26;17.00;99.90
17815;DHT22;9031;50.974;11.330;2023-08-01T03:30:52;16.90;99.90
17815;DHT22;9031;50.974;11.330;2023-08-01T03:33:19;16.90;99.90
17815;DHT22;9031;50.974;11.330;2023-08-01T03:35:44;17.00;99.90
17815;DHT22;9031;50.974;11.330;2023-08-01T03:38:10;17.00;99.90
17815;DHT22;9031;50.974;11.330;2023-08-01T03:40:35;17.10;99.90
17815;DHT22;9031;50.974;11.330;2023-08-01T03:43:01;17.00;99.90
17815;DHT22;9031;50.974;11.330;2023-08-01T03:45:27;17.00;99.90
17815;DHT22;9031;50.974;11.330;2023-08-01T03:47:52;17.00;99.90
17815;DHT22;9031;50.974;11.330;2023-08-01T03:50:18;17.00;99.90
17815;DHT22;9031;50.974;11.330;2023-08-01T03:52:43;17.10;99.90
17815;DHT22;9031;50.974;11.330;2023-08-01T03:55:09;17.10;99.90
17815;DHT22;9031;50.974;11.330;2023-08-01T03:57:34;17.00;99.90
17815;DHT22;9031;50.974;11.330;2023-08-01T04:00:00;17.00;99.90
17815;DHT22;9031;50.974;11.330;2023-08-01T04:02:25;17.00;99.90
17815;DHT22;9031;50.974;11.330;2023-08-01T04:04:51;17.10;99.90
17815;DHT22;9031;50.974;11.330;2023-08-01T04:07:17;17.10;99.90
17815;DHT22;9031;50.974;11.330;2023-08-01T04:09:42;17.00;99.90
17815;DHT22;9031;50.974;11.330;2023-08-01T04:12:08;17.10;99.90
17815;DHT22;9031;50.974;11.330;2023-08-01T04:14:34;17.10;99.90
17815;DHT22;9031;50.974;11.330;2023-08-01T04:16:59;17.00;99.90
17815;DHT22;9031;50.974;11.330;2023-08-01T04:19:25;17.00;99.90
17815;DHT22;9031;50.974;11.330;2023-08-01T04:21:51;17.00;99.90
17815;DHT22;9031;50.974;11.330;2023-08-01T04:24:16;17.00;99.90
17815;DHT22;9031;50.974;11.330;2023-08-01T04:26:42;16.90;99.90
17815;DHT22;9031;50.974;11.330;2023-08-01T04:29:07;17.00;99.90
17815;DHT22;9031;50.974;11.330;2023-08-01T04:31:33;17.00;99.90
17815;DHT22;9031;50.974;11.330;2023-08-01T04:33:58;17.00;99.90
17815;DHT22;9031;50.974;11.330;2023-08-01T04:36:24;16.90;99.90
17815;DHT22;9031;50.974;11.330;2023-08-01T04:38:49;16.90;99.90
17815;DHT22;9031;50.974;11.330;2023-08-01T04:41:15;16.90;99.90
17815;DHT22;9031;50.974;11.330;2023-08-01T04:43:40;16.80;99.90
17815;DHT22;9031;50.974;11.330;2023-08-01T04:46:06;16.90;99.90
17815;DHT22;9031;50.974;11.330;2023-08-01T04:48:31;16.90;99.90
17815;DHT22;9031;50.974;11.330;2023-08-01T04:50:57;16.90;99.90
17815;DHT22;9031;50.974;11.330;2023-08-01T04:53:22;16.90;99.90
17815;DHT22;9031;50.974;11.330;2023-08-01T04:55:48;16.90;99.90
17815;DHT22;9031;50.974;11.330;2023-08-01T04:58:13;16.70;99.90
17815;DHT22;9031;50.974;11.330;2023-08-01T05:00:40;16.50;99.90
17815;DHT22;9031;50.974;11.330;2023-08-01T05:03:06;16.60;99.90
17815;DHT22;9031;50.974;11.330;2023-08-01T05:05:32;16.70;99.90
17815;DHT22;9031;50.974;11.330;2023-08-01T05:07:57;16.80;99.90
17815;DHT22;9031;50.974;11.330;2023-08-01T05:10:23;16.80;99.90
17815;DHT22;9031;50.974;11.330;2023-08-01T05:12:48;16.90;99.90
17815;DHT22;9031;50.974;11.330;2023-08-01T05:15:14;17.00;99.90
17815;DHT22;9031;50.974;11.330;2023-08-01T05:17:39;17.00;99.90
17815;DHT22;9031;50.974;11.330;2023-08-01T05:20:05;17.00;99.90
17815;DHT22;9031;50.974;11.330;2023-08-01T05:22:31;17.10;99.90
17815;DHT22;9031;50.974;11.330;2023-08-01T05:24:56;17.10;99.90
17815;DHT22;9031;50.974;11.330;2023-08-01T05:27:22;17.20;99.90
17815;DHT22;9031;50.974;11.330;2023-08-01T05:29:47;17.20;99.90
17815;DHT22;9031;50.974;11.330;2023-08-01T05:32:13;17.10;99.90
17815;DHT22;9031;50.974;11.330;2023-08-01T05:34:38;17.10;99.90
17815;DHT22;9031;50.974;11.330;2023-08-01T05:37:04;17.20;99.90
17815;DHT22;9031;50.974;11.330;2023-08-01T05:39:30;17.20;99.90
17815;DHT22;9031;50.974;11.330;2023-08-01T05:41:55;17.20;99.90
17815;DHT22;9031;50.974;11.330;2023-08-01T05:44:21;17.20;99.90
17815;DHT22;9031;50.974;11.330;2023-08-01T05:46:46;17.20;99.90
17815;DHT22;9031;50.974;11.330;2023-08-01T05:49:12;17.20;99.90
17815;DHT22;9031;50.974;11.330;2023-08-01T05:51:37;17.20;99.90
17815;DHT22;9031;50.974;11.330;2023-08-01T05:54:03;17.20;99.90
17815;DHT22;9031;50.974;11.330;2023-08-01T05:56:28;17.10;99.90
17815;DHT22;9031;50.974;11.330;2023-08-01T05:58:54;17.10;99.90
17815;DHT22;9031;50.974;11.330;2023-08-01T06:01:20;17.20;99.90
17815;DHT22;9031;50.974;11.330;2023-08-01T06:03:45;17.20;99.90
17815;DHT22;9031;50.974;11.330;2023-08-01T06:06:11;17.20;99.90
17815;DHT22;9031;50.974;11.330;2023-08-01T06:08:36;17.00;99.90
17815;DHT22;9031;50.974;11.330;2023-08-01T06:11:02;16.70;99.90
17815;DHT22;9031;50.974;11.330;2023-08-01T06:13:27;16.50;99.90
17815;DHT22;9031;50.974;11.330;2023-08-01T06:15:53;16.30;99.90
17815;DHT22;9031;50.974;11.330;2023-08-01T06:18:18;16.20;99.90
17815;DHT22;9031;50.974;11.330;2023-08-01T06:20:44;16.10;99.90
17815;DHT22;9031;50.974;11.330;2023-08-01T06:23:09;16.00;99.90
17815;DHT22;9031;50.974;11.330;2023-08-01T06:25:35;16.00;99.90
17815;DHT22;9031;50.974;11.330;2023-08-01T06:28:00;16.00;99.90
17815;DHT22;9031;50.974;11.330;2023-08-01T06:30:26;16.00;99.90
17815;DHT22;9031;50.974;11.330;2023-08-01T06:32:51;16.00;99.90
17815;DHT22;9031;50.974;11.330;2023-08-01T06:35:17;16.10;99.90
17815;DHT22;9031;50.974;11.330;2023-08-01T06:37:42;16.10;99.90
17815;DHT22;9031;50.974;11.330;2023-08-01T06:40:09;16.20;99.90
17815;DHT22;9031;50.974;11.330;2023-08-01T06:42:35;16.20;99.90
17815;DHT22;9031;50.974;11.330;2023-08-01T06:45:00;16.30;99.90
17815;DHT22;9031;50.974;11.330;2023-08-01T06:47:26;16.30;99.90
17815;DHT22;9031;50.974;11.330;2023-08-01T06:49:51;16.20;99.90
17815;DHT22;9031;50.974;11.330;2023-08-01T06:52:17;16.30;99.90
17815;DHT22;9031;50.974;11.330;2023-08-01T06:54:42;16.30;99.90
17815;DHT22;9031;50.974;11.330;2023-08-01T06:57:08;16.40;99.90
17815;DHT22;9031;50.974;11.330;2023-08-01T06:59:33;16.40;99.90
17815;DHT22;9031;50.974;11.330;2023-08-01T07:02:00;16.50;99.90
17815;DHT22;9031;50.974;11.330;2023-08-01T07:04:25;16.50;99.90
17815;DHT22;9031;50.974;11.330;2023-08-01T07:06:51;16.60;99.90
17815;DHT22;9031;50.974;11.330;2023-08-01T07:09:16;16.60;99.90
17815;DHT22;9031;50.974;11.330;2023-08-01T07:11:42;16.70;99.90
17815;DHT22;9031;50.974;11.330;2023-08-01T07:14:07;16.80;99.90
17815;DHT22;9031;50.974;11.330;2023-08-01T07:16:33;16.70;99.90
17815;DHT22;9031;50.974;11.330;2023-08-01T07:19:00;16.90;99.90
17815;DHT22;9031;50.974;11.330;2023-08-01T07:21:26;17.10;99.90
17815;DHT22;9031;50.974;11.330;2023-08-01T07:23:52;17.10;99.90
17815;DHT22;9031;50.974;11.330;2023-08-01T07:26:17;17.10;99.90
17815;DHT22;9031;50.974;11.330;2023-08-01T07:28:43;16.80;99.90
17815;DHT22;9031;50.974;11.330;2023-08-01T07:31:08;16.80;99.90
17815;DHT22;9031;50.974;11.330;2023-08-01T07:33:34;16.90;99.90
17815;DHT22;9031;50.974;11.330;2023-08-01T07:36:00;16.90;99.90
17815;DHT22;9031;50.974;11.330;2023-08-01T07:38:26;16.80;99.90
17815;DHT22;9031;50.974;11.330;2023-08-01T07:40:57;16.90;99.90
17815;DHT22;9031;50.974;11.330;2023-08-01T07:43:22;17.00;99.90
17815;DHT22;9031;50.974;11.330;2023-08-01T07:45:48;16.80;99.90
17815;DHT22;9031;50.974;11.330;2023-08-01T07:48:15;16.70;99.90
17815;DHT22;9031;50.974;11.330;2023-08-01T07:50:41;16.80;99.90
17815;DHT22;9031;50.974;11.330;2023-08-01T07:53:06;16.90;99.90
17815;DHT22;9031;50.974;11.330;2023-08-01T07:55:35;16.80;99.90
17815;DHT22;9031;50.974;11.330;2023-08-01T07:58:01;16.80;99.90
17815;DHT22;9031;50.974;11.330;2023-08-01T08:00:26;16.90;99.90
17815;DHT22;9031;50.974;11.330;2023-08-01T08:02:53;17.10;99.90
17815;DHT22;9031;50.974;11.330;2023-08-01T08:05:19;17.20;99.90
17815;DHT22;9031;50.974;11.330;2023-08-01T08:07:44;17.40;99.90
17815;DHT22;9031;50.974;11.330;2023-08-01T08:10:10;17.40;99.90
17815;DHT22;9031;50.974;11.330;2023-08-01T08:12:42;17.50;99.90
17815;DHT22;9031;50.974;11.330;2023-08-01T08:15:07;17.60;99.90
17815;DHT22;9031;50.974;11.330;2023-08-01T08:17:33;17.70;99.90
17815;DHT22;9031;50.974;11.330;2023-08-01T08:19:59;17.70;99.90
17815;DHT22;9031;50.974;11.330;2023-08-01T08:22:24;17.70;99.90
17815;DHT22;9031;50.974;11.330;2023-08-01T08:24:49;17.70;99.90
17815;DHT22;9031;50.974;11.330;2023-08-01T08:27:15;17.70;99.90
17815;DHT22;9031;50.974;11.330;2023-08-01T08:29:41;17.70;99.90
17815;DHT22;9031;50.974;11.330;2023-08-01T08:32:07;17.60;99.90
17815;DHT22;9031;50.974;11.330;2023-08-01T08:34:32;17.50;99.90
17815;DHT22;9031;50.974;11.330;2023-08-01T08:36:58;17.50;99.90
17815;DHT22;9031;50.974;11.330;2023-08-01T08:39:23;17.60;99.90
17815;DHT22;9031;50.974;11.330;2023-08-01T08:41:53;17.70;99.90
17815;DHT22;9031;50.974;11.330;2023-08-01T08:44:20;17.60;99.90
17815;DHT22;9031;50.974;11.330;2023-08-01T08:46:50;17.50;99.90
17815;DHT22;9031;50.974;11.330;2023-08-01T08:49:17;17.00;99.90
17815;DHT22;9031;50.974;11.330;2023-08-01T08:51:45;16.70;99.90
17815;DHT22;9031;50.974;11.330;2023-08-01T08:54:11;16.40;99.90
17815;DHT22;9031;50.974;11.330;2023-08-01T08:56:38;16.10;99.90
17815;DHT22;9031;50.974;11.330;2023-08-01T08:59:06;15.90;99.90
17815;DHT22;9031;50.974;11.330;2023-08-01T09:01:32;15.90;99.90
17815;DHT22;9031;50.974;11.330;2023-08-01T09:03:59;15.80;99.90
17815;DHT22;9031;50.974;11.330;2023-08-01T09:06:29;15.80;99.90
17815;DHT22;9031;50.974;11.330;2023-08-01T09:09:15;15.70;99.90
17815;DHT22;9031;50.974;11.330;2023-08-01T09:11:46;15.70;99.90
17815;DHT22;9031;50.974;11.330;2023-08-01T09:14:12;15.70;99.90
17815;DHT22;9031;50.974;11.330;2023-08-01T09:16:39;15.60;99.90
17815;DHT22;9031;50.974;11.330;2023-08-01T09:19:06;15.70;99.90
17815;DHT22;9031;50.974;11.330;2023-08-01T09:21:33;15.60;99.90
17815;DHT22;9031;50.974;11.330;2023-08-01T09:24:09;15.70;99.90
17815;DHT22;9031;50.974;11.330;2023-08-01T09:26:37;15.70;99.90
17815;DHT22;9031;50.974;11.330;2023-08-01T09:29:03;15.90;99.90
17815;DHT22;9031;50.974;11.330;2023-08-01T09:31:30;16.00;99.90
17815;DHT22;9031;50.974;11.330;2023-08-01T09:33:56;16.10;99.90
17815;DHT22;9031;50.974;11.330;2023-08-01T09:36:22;16.20;99.90
17815;DHT22;9031;50.974;11.330;2023-08-01T09:38:49;16.40;99.90
17815;DHT22;9031;50.974;11.330;2023-08-01T09:41:18;16.40;99.90
17815;DHT22;9031;50.974;11.330;2023-08-01T09:43:46;16.40;99.90
17815;DHT22;9031;50.974;11.330;2023-08-01T09:46:12;16.60;99.90
17815;DHT22;9031;50.974;11.330;2023-08-01T09:48:38;16.90;99.90
17815;DHT22;9031;50.974;11.330;2023-08-01T09:51:05;17.10;99.90
17815;DHT22;9031;50.974;11.330;2023-08-01T09:53:31;17.30;99.90
17815;DHT22;9031;50.974;11.330;2023-08-01T09:56:00;17.30;99.90
17815;DHT22;9031;50.974;11.330;2023-08-01T09:58:32;17.20;99.90
17815;DHT22;9031;50.974;11.330;2023-08-01T10:01:00;17.10;99.90
17815;DHT22;9031;50.974;11.330;2023-08-01T10:03:27;17.20;99.90
17815;DHT22;9031;50.974;11.330;2023-08-01T10:05:55;17.20;99.90
17815;DHT22;9031;50.974;11.330;2023-08-01T10:08:21;17.30;99.90
17815;DHT22;9031;50.974;11.330;2023-08-01T10:10:48;17.30;99.90
17815;DHT22;9031;50.974;11.330;2023-08-01T10:13:14;17.30;99.90
17815;DHT22;9031;50.974;11.330;2023-08-01T10:15:40;17.30;99.90
17815;DHT22;9031;50.974;11.330;2023-08-01T10:18:06;17.20;99.90
17815;DHT22;9031;50.974;11.330;2023-08-01T10:20:32;17.20;99.90
17815;DHT22;9031;50.974;11.330;2023-08-01T10:22:59;17.40;99.90
17815;DHT22;9031;50.974;11.330;2023-08-01T10:25:25;17.90;99.90
17815;DHT22;9031;50.974;11.330;2023-08-01T10:28:00;18.00;99.90
17815;DHT22;9031;50.974;11.330;2023-08-01T10:30:26;18.30;99.90
17815;DHT22;9031;50.974;11.330;2023-08-01T10:32:58;18.90;99.90
17815;DHT22;9031;50.974;11.330;2023-08-01T10:35:35;19.00;99.90
17815;DHT22;9031;50.974;11.330;2023-08-01T10:38:11;18.80;99.90
17815;DHT22;9031;50.974;11.330;2023-08-01T10:40:39;19.00;99.90
17815;DHT22;9031;50.974;11.330;2023-08-01T10:43:05;19.60;99.90
17815;DHT22;9031;50.974;11.330;2023-08-01T10:45:31;20.20;99.90
17815;DHT22;9031;50.974;11.330;2023-08-01T10:48:07;20.50;99.90
17815;DHT22;9031;50.974;11.330;2023-08-01T10:50:33;20.40;99.90
17815;DHT22;9031;50.974;11.330;2023-08-01T10:53:09;20.40;99.90
17815;DHT22;9031;50.974;11.330;2023-08-01T10:55:44;20.60;99.90
17815;DHT22;9031;50.974;11.330;2023-08-01T10:58:10;21.70;99.90
17815;DHT22;9031;50.974;11.330;2023-08-01T11:00:36;21.50;99.90
17815;DHT22;9031;50.974;11.330;2023-08-01T11:03:01;22.80;99.90
17815;DHT22;9031;50.974;11.330;2023-08-01T11:05:27;23.20;99.90
17815;DHT22;9031;50.974;11.330;2023-08-01T11:07:55;22.50;99.90
17815;DHT22;9031;50.974;11.330;2023-08-01T11:10:28;22.30;99.90
17815;DHT22;9031;50.974;11.330;2023-08-01T11:12:53;24.00;99.90
17815;DHT22;9031;50.974;11.330;2023-08-01T11:15:19;24.50;99.90
17815;DHT22;9031;50.974;11.330;2023-08-01T11:17:50;23.70;99.90
17815;DHT22;9031;50.974;11.330;2023-08-01T11:20:16;23.60;99.90
17815;DHT22;9031;50.974;11.330;2023-08-01T11:22:56;23.10;99.90
17815;DHT22;9031;50.974;11.330;2023-08-01T11:25:52;23.50;99.90
17815;DHT22;9031;50.974;11.330;2023-08-01T11:28:19;24.00;99.90
17815;DHT22;9031;50.974;11.330;2023-08-01T11:30:44;24.90;99.90
17815;DHT22;9031;50.974;11.330;2023-08-01T11:33:19;25.20;99.90
17815;DHT22;9031;50.974;11.330;2023-08-01T11:35:49;24.60;99.90
17815;DHT22;9031;50.974;11.330;2023-08-01T11:38:15;22.80;99.90
17815;DHT22;9031;50.974;11.330;2023-08-01T11:40:40;23.80;99.90
17815;DHT22;9031;50.974;11.330;2023-08-01T11:43:06;23.80;99.90
17815;DHT22;9031;50.974;11.330;2023-08-01T11:45:32;23.70;99.90
17815;DHT22;9031;50.974;11.330;2023-08-01T11:47:58;25.40;99.90
17815;DHT22;9031;50.974;11.330;2023-08-01T11:50:24;27.10;99.90
17815;DHT22;9031;50.974;11.330;2023-08-01T11:52:50;27.60;99.90
17815;DHT22;9031;50.974;11.330;2023-08-01T11:55:23;26.80;99.90
17815;DHT22;9031;50.974;11.330;2023-08-01T11:57:57;27.10;99.90
17815;DHT22;9031;50.974;11.330;2023-08-01T12:00:27;27.30;99.90
17815;DHT22;9031;50.974;11.330;2023-08-01T12:03:07;24.80;99.90
17815;DHT22;9031;50.974;11.330;2023-08-01T12:05:33;24.50;99.90
17815;DHT22;9031;50.974;11.330;2023-08-01T12:08:08;25.70;99.90
17815;DHT22;9031;50.974;11.330;2023-08-01T12:10:39;25.80;99.90
17815;DHT22;9031;50.974;11.330;2023-08-01T12:13:05;25.70;99.90
17815;DHT22;9031;50.974;11.330;2023-08-01T12:15:30;26.40;99.90
17815;DHT22;9031;50.974;11.330;2023-08-01T12:17:57;26.50;99.90
17815;DHT22;9031;50.974;11.330;2023-08-01T12:20:22;25.50;99.90
17815;DHT22;9031;50.974;11.330;2023-08-01T12:22:47;25.10;99.90
17815;DHT22;9031;50.974;11.330;2023-08-01T12:25:13;24.10;99.90
17815;DHT22;9031;50.974;11.330;2023-08-01T12:27:39;23.00;99.90
17815;DHT22;9031;50.974;11.330;2023-08-01T12:30:05;22.10;99.90
17815;DHT22;9031;50.974;11.330;2023-08-01T12:32:30;21.90;99.90
17815;DHT22;9031;50.974;11.330;2023-08-01T12:34:56;22.00;99.90
17815;DHT22;9031;50.974;11.330;2023-08-01T12:37:21;22.20;99.90
17815;DHT22;9031;50.974;11.330;2023-08-01T12:39:47;22.10;99.90
17815;DHT22;9031;50.974;11.330;2023-08-01T12:42:12;21.80;99.90
17815;DHT22;9031;50.974;11.330;2023-08-01T12:44:38;21.50;99.90
17815;DHT22;9031;50.974;11.330;2023-08-01T12:47:03;20.70;99.90
17815;DHT22;9031;50.974;11.330;2023-08-01T12:49:29;19.80;99.90
17815;DHT22;9031;50.974;11.330;2023-08-01T12:51:54;19.30;99.90
17815;DHT22;9031;50.974;11.330;2023-08-01T12:54:20;18.90;99.90
17815;DHT22;9031;50.974;11.330;2023-08-01T12:56:45;18.80;99.90
17815;DHT22;9031;50.974;11.330;2023-08-01T12:59:11;18.90;99.90
17815;DHT22;9031;50.974;11.330;2023-08-01T13:01:36;19.70;99.90
17815;DHT22;9031;50.974;11.330;2023-08-01T13:04:02;21.80;99.90
17815;DHT22;9031;50.974;11.330;2023-08-01T13:06:27;23.90;99.90
17815;DHT22;9031;50.974;11.330;2023-08-01T13:08:53;25.80;99.90
17815;DHT22;9031;50.974;11.330;2023-08-01T13:11:18;26.60;99.90
17815;DHT22;9031;50.974;11.330;2023-08-01T13:13:44;27.20;99.90
17815;DHT22;9031;50.974;11.330;2023-08-01T13:16:11;27.70;99.90
17815;DHT22;9031;50.974;11.330;2023-08-01T13:18:36;27.60;99.90
17815;DHT22;9031;50.974;11.330;2023-08-01T13:21:08;27.80;99.90
17815;DHT22;9031;50.974;11.330;2023-08-01T13:23:34;27.70;99.90
17815;DHT22;9031;50.974;11.330;2023-08-01T13:25:59;28.40;99.90
17815;DHT22;9031;50.974;11.330;2023-08-01T13:28:27;28.10;99.40
17815;DHT22;9031;50.974;11.330;2023-08-01T13:30:53;28.20;97.10
17815;DHT22;9031;50.974;11.330;2023-08-01T13:33:18;27.60;97.10
17815;DHT22;9031;50.974;11.330;2023-08-01T13:35:44;27.10;98.00
17815;DHT22;9031;50.974;11.330;2023-08-01T13:38:10;27.00;98.00
17815;DHT22;9031;50.974;11.330;2023-08-01T13:40:35;27.10;98.30
17815;DHT22;9031;50.974;11.330;2023-08-01T13:43:00;26.70;98.20
17815;DHT22;9031;50.974;11.330;2023-08-01T13:45:26;25.50;99.90
17815;DHT22;9031;50.974;11.330;2023-08-01T13:47:54;26.20;99.50
17815;DHT22;9031;50.974;11.330;2023-08-01T13:50:20;26.10;99.90
17815;DHT22;9031;50.974;11.330;2023-08-01T13:52:45;24.50;99.90
17815;DHT22;9031;50.974;11.330;2023-08-01T13:55:11;23.50;99.90
17815;DHT22;9031;50.974;11.330;2023-08-01T13:57:36;23.90;99.90
17815;DHT22;9031;50.974;11.330;2023-08-01T14:00:02;24.20;99.90
17815;DHT22;9031;50.974;11.330;2023-08-01T14:02:28;23.80;99.90
17815;DHT22;9031;50.974;11.330;2023-08-01T14:04:55;23.40;99.90
17815;DHT22;9031;50.974;11.330;2023-08-01T14:07:21;23.40;99.90
17815;DHT22;9031;50.974;11.330;2023-08-01T14:09:46;23.10;99.90
17815;DHT22;9031;50.974;11.330;2023-08-01T14:12:12;22.80;99.90
17815;DHT22;9031;50.974;11.330;2023-08-01T14:14:37;22.30;99.90
17815;DHT22;9031;50.974;11.330;2023-08-01T14:17:03;22.30;99.90
17815;DHT22;9031;50.974;11.330;2023-08-01T14:19:29;22.50;99.90
17815;DHT22;9031;50.974;11.330;2023-08-01T14:21:56;23.40;99.90
17815;DHT22;9031;50.974;11.330;2023-08-01T14:24:21;23.70;99.90
17815;DHT22;9031;50.974;11.330;2023-08-01T14:26:47;23.70;99.90
17815;DHT22;9031;50.974;11.330;2023-08-01T14:29:12;23.60;99.90
17815;DHT22;9031;50.974;11.330;2023-08-01T14:31:38;23.80;99.90
17815;DHT22;9031;50.974;11.330;2023-08-01T14:34:03;24.10;99.90
17815;DHT22;9031;50.974;11.330;2023-08-01T14:36:29;24.00;99.90
17815;DHT22;9031;50.974;11.330;2023-08-01T14:38:54;23.70;99.90
17815;DHT22;9031;50.974;11.330;2023-08-01T14:41:22;24.50;99.90
17815;DHT22;9031;50.974;11.330;2023-08-01T14:43:47;25.10;99.90
17815;DHT22;9031;50.974;11.330;2023-08-01T14:46:13;26.70;98.00
17815;DHT22;9031;50.974;11.330;2023-08-01T14:48:38;28.40;95.50
17815;DHT22;9031;50.974;11.330;2023-08-01T14:51:07;28.90;94.40
17815;DHT22;9031;50.974;11.330;2023-08-01T14:53:33;29.80;91.80
17815;DHT22;9031;50.974;11.330;2023-08-01T14:55:58;30.60;90.90
17815;DHT22;9031;50.974;11.330;2023-08-01T14:58:25;29.90;89.80
17815;DHT22;9031;50.974;11.330;2023-08-01T15:00:51;29.40;88.50
17815;DHT22;9031;50.974;11.330;2023-08-01T15:03:16;28.30;90.00
17815;DHT22;9031;50.974;11.330;2023-08-01T15:05:42;27.50;91.40
17815;DHT22;9031;50.974;11.330;2023-08-01T15:08:07;27.10;91.40
17815;DHT22;9031;50.974;11.330;2023-08-01T15:10:33;27.10;91.40
17815;DHT22;9031;50.974;11.330;2023-08-01T15:13:01;27.10;92.50
17815;DHT22;9031;50.974;11.330;2023-08-01T15:15:26;27.20;91.80
17815;DHT22;9031;50.974;11.330;2023-08-01T15:17:52;27.40;91.60
17815;DHT22;9031;50.974;11.330;2023-08-01T15:20:17;26.90;91.30
17815;DHT22;9031;50.974;11.330;2023-08-01T15:22:43;27.40;91.50
17815;DHT22;9031;50.974;11.330;2023-08-01T15:25:08;27.50;91.10
17815;DHT22;9031;50.974;11.330;2023-08-01T15:27:34;27.30;90.30